Time;durP1;ratioP1;P1;durP2;ratioP2;P2;SDS_P1;SDS_P2;PMS_P1;PMS_P2;Temp;Humidity;BMP_temperature;BMP_pressure;BME280_temperature;BME280_humidity;BME280_pressure;Samples;Min_cycle;Max_cycle;Signal;HPM_P1;HPM_P2
2022/04/11 00:01:58;;;;;;;15.97;6.00;;;0.30;99.90;;;;;;5005316;28;20200;-64
2022/04/11 00:04:23;;;;;;;19.10;7.23;;;0.30;99.90;;;;;;5011940;28;20215;-65
2022/04/11 00:06:49;;;;;;;17.33;5.97;;;0.30;99.90;;;;;;5017483;28;20194;-65
2022/04/11 00:09:15;;;;;;;14.70;5.73;;;0.40;99.90;;;;;;5022854;28;20773;-64
2022/04/11 00:11:41;;;;;;;12.90;5.30;;;0.40;99.90;;;;;;5024932;28;20245;-65
2022/04/11 00:14:06;;;;;;;20.80;6.50;;;0.30;99.90;;;;;;5019164;28;20768;-66
2022/04/11 00:16:32;;;;;;;9.57;5.30;;;0.40;99.90;;;;;;5018476;28;20192;-65
2022/04/11 00:18:58;;;;;;;10.00;5.33;;;0.40;99.90;;;;;;5020951;28;20883;-65
2022/04/11 00:21:24;;;;;;;8.57;3.97;;;0.40;99.90;;;;;;5018602;28;20191;-64
2022/04/11 00:23:49;;;;;;;6.43;3.37;;;0.40;99.90;;;;;;5019449;28;20280;-66
2022/04/11 00:26:15;;;;;;;6.40;3.50;;;0.30;99.90;;;;;;5013602;28;20201;-65
2022/04/11 00:28:41;;;;;;;11.50;4.53;;;0.40;99.90;;;;;;5017670;28;20298;-65
2022/04/11 00:31:07;;;;;;;11.40;4.77;;;0.40;99.90;;;;;;5010549;28;20214;-63
2022/04/11 00:33:33;;;;;;;6.13;3.70;;;0.30;99.90;;;;;;5013069;28;20189;-65
2022/04/11 00:35:58;;;;;;;8.70;4.53;;;0.30;99.90;;;;;;5026178;28;21601;-65
2022/04/11 00:38:24;;;;;;;6.80;3.80;;;0.30;99.90;;;;;;5018949;28;20194;-65
2022/04/11 00:40:50;;;;;;;15.10;4.33;;;0.30;99.90;;;;;;5022745;28;20182;-64
2022/04/11 00:43:38;;;;;;;7.87;4.00;;;0.20;99.90;;;;;;5016570;28;20245;-65
2022/04/11 00:46:05;;;;;;;11.03;4.40;;;0.20;99.90;;;;;;5017585;28;20210;-64
2022/04/11 00:48:31;;;;;;;6.20;3.73;;;0.20;99.90;;;;;;5018217;28;21056;-64
2022/04/11 00:51:07;;;;;;;10.13;5.40;;;0.20;99.90;;;;;;5011252;28;20517;-64
2022/04/11 00:53:34;;;;;;;8.23;3.73;;;0.20;99.90;;;;;;5018158;28;20436;-65
2022/04/11 00:56:01;;;;;;;6.60;3.03;;;0.20;99.90;;;;;;5019036;28;20494;-64
2022/04/11 00:58:29;;;;;;;7.03;3.53;;;0.20;99.90;;;;;;5004766;28;21075;-63
2022/04/11 01:00:55;;;;;;;5.50;2.63;;;0.20;99.90;;;;;;5007880;28;20425;-65
2022/04/11 01:03:21;;;;;;;9.50;2.73;;;0.10;99.90;;;;;;5000636;28;20460;-64
2022/04/11 01:05:47;;;;;;;3.73;2.03;;;0.10;99.90;;;;;;5009331;28;20289;-64
2022/04/11 01:08:13;;;;;;;6.13;2.60;;;0.10;99.90;;;;;;5012440;28;20525;-65
2022/04/11 01:10:38;;;;;;;15.73;2.20;;;0.10;99.90;;;;;;5011817;28;20257;-65
2022/04/11 01:13:05;;;;;;;7.73;3.10;;;0.10;99.90;;;;;;5020731;28;20263;-64
2022/04/11 01:15:30;;;;;;;5.60;2.83;;;0.00;99.90;;;;;;5020905;28;20210;-63
2022/04/11 01:17:56;;;;;;;7.43;3.00;;;0.00;99.90;;;;;;5015501;28;20434;-65
2022/04/11 01:20:22;;;;;;;7.67;2.87;;;0.00;99.90;;;;;;5015193;28;20726;-64
2022/04/11 01:22:48;;;;;;;2.80;2.20;;;0.00;99.90;;;;;;5009745;28;20241;-65
2022/04/11 01:25:15;;;;;;;7.17;3.73;;;0.00;99.90;;;;;;5013452;28;20612;-66
2022/04/11 01:27:42;;;;;;;6.97;3.00;;;0.00;99.90;;;;;;5017314;28;20511;-64
2022/04/11 01:30:10;;;;;;;7.57;3.93;;;0.00;99.90;;;;;;5014642;28;20499;-66
2022/04/11 01:32:40;;;;;;;5.27;2.83;;;0.00;99.90;;;;;;5011373;28;20440;-65
2022/04/11 01:35:24;;;;;;;12.53;4.17;;;0.00;99.90;;;;;;5018682;28;20899;-65
2022/04/11 01:37:50;;;;;;;7.33;3.83;;;0.00;99.90;;;;;;5014222;28;20433;-65
2022/04/11 01:40:16;;;;;;;6.70;2.93;;;-0.10;99.90;;;;;;5018559;28;21074;-65
2022/04/11 01:42:44;;;;;;;4.97;2.67;;;-0.10;99.90;;;;;;5015019;28;20999;-64
2022/04/11 01:45:11;;;;;;;6.20;3.53;;;-0.10;99.90;;;;;;5018190;28;20977;-65
2022/04/11 01:47:39;;;;;;;9.90;3.10;;;-0.10;99.90;;;;;;5012386;28;21075;-65
2022/04/11 01:50:06;;;;;;;9.80;3.30;;;-0.10;99.90;;;;;;5018673;28;20448;-64
2022/04/11 01:52:32;;;;;;;5.50;3.00;;;0.00;99.90;;;;;;5013268;28;20742;-64
2022/04/11 01:54:58;;;;;;;7.00;3.10;;;-0.10;99.90;;;;;;5019358;28;20463;-64
2022/04/11 01:57:23;;;;;;;5.83;3.03;;;0.00;99.90;;;;;;5022048;28;20654;-65
2022/04/11 01:59:49;;;;;;;9.63;3.30;;;0.00;99.90;;;;;;5023087;28;20182;-66
2022/04/11 02:02:14;;;;;;;5.57;2.93;;;0.00;99.90;;;;;;5022760;28;20328;-65
2022/04/11 02:04:40;;;;;;;5.80;3.23;;;0.00;99.90;;;;;;5014156;28;20589;-65
2022/04/11 02:07:06;;;;;;;7.43;2.80;;;0.10;99.90;;;;;;5016937;28;20198;-64
2022/04/11 02:09:32;;;;;;;12.23;3.17;;;0.10;99.90;;;;;;5018270;28;20448;-64
2022/04/11 02:11:57;;;;;;;4.20;2.67;;;0.20;99.90;;;;;;5021442;28;20217;-65
2022/04/11 02:14:23;;;;;;;7.30;3.30;;;0.20;99.90;;;;;;5013759;28;20222;-65
2022/04/11 02:16:49;;;;;;;5.50;2.93;;;0.20;99.90;;;;;;5013448;28;20190;-64
2022/04/11 02:19:14;;;;;;;5.80;3.10;;;0.10;99.90;;;;;;5018465;28;20641;-65
2022/04/11 02:21:40;;;;;;;6.10;3.20;;;0.10;99.90;;;;;;5011392;28;20285;-65
2022/04/11 02:24:06;;;;;;;6.20;3.00;;;0.10;99.90;;;;;;5018970;28;20258;-64
2022/04/11 02:26:32;;;;;;;4.37;2.80;;;0.10;99.90;;;;;;5012473;28;20677;-65
2022/04/11 02:28:57;;;;;;;6.07;3.17;;;0.10;99.90;;;;;;5010236;28;20433;-64
2022/04/11 02:31:23;;;;;;;8.23;3.10;;;0.10;99.90;;;;;;5009605;28;20222;-64
2022/04/11 02:33:48;;;;;;;5.13;3.30;;;0.10;99.90;;;;;;4987519;28;20219;-64
2022/04/11 02:36:14;;;;;;;9.37;4.10;;;0.10;99.90;;;;;;5006062;28;20226;-64
2022/04/11 02:38:40;;;;;;;5.20;3.13;;;0.10;99.90;;;;;;5004609;28;20298;-64
2022/04/11 02:41:05;;;;;;;7.97;3.70;;;0.20;99.90;;;;;;5005566;28;20199;-64
2022/04/11 02:43:31;;;;;;;7.20;3.83;;;0.20;99.90;;;;;;5010390;28;20344;-64
2022/04/11 02:45:56;;;;;;;12.73;4.20;;;0.30;99.90;;;;;;5004567;28;20300;-64
2022/04/11 02:48:22;;;;;;;10.70;4.20;;;0.40;99.90;;;;;;4986131;28;20199;-61
2022/04/11 02:50:47;;;;;;;13.13;4.53;;;0.50;99.90;;;;;;5004881;28;20218;-64
2022/04/11 02:53:13;;;;;;;10.13;4.83;;;0.60;99.90;;;;;;5004591;28;20794;-66
2022/04/11 02:55:39;;;;;;;15.13;5.13;;;0.60;99.90;;;;;;5005088;28;20217;-64
2022/04/11 02:58:04;;;;;;;17.23;5.97;;;0.60;99.90;;;;;;5004159;28;20195;-62
2022/04/11 03:00:30;;;;;;;10.83;5.30;;;0.70;99.90;;;;;;5004271;28;20589;-64
2022/04/11 03:02:55;;;;;;;15.70;5.80;;;0.70;99.90;;;;;;5014277;28;20267;-68
2022/04/11 03:05:21;;;;;;;7.63;4.53;;;0.70;99.90;;;;;;5010947;28;20210;-66
2022/04/11 03:07:47;;;;;;;9.60;5.90;;;0.70;99.90;;;;;;5006168;28;20320;-65
2022/04/11 03:10:13;;;;;;;8.50;4.90;;;0.70;99.90;;;;;;5011001;28;20217;-66
2022/04/11 03:12:38;;;;;;;13.70;6.87;;;0.80;99.90;;;;;;5004575;28;20233;-67
2022/04/11 03:15:05;;;;;;;10.00;5.90;;;0.80;99.90;;;;;;5004925;28;20458;-67
2022/04/11 03:17:31;;;;;;;13.17;5.53;;;0.80;99.90;;;;;;5004645;28;20232;-66
2022/04/11 03:19:56;;;;;;;12.43;7.00;;;0.80;99.90;;;;;;5004431;28;20446;-67
2022/04/11 03:22:22;;;;;;;11.47;6.13;;;0.90;99.90;;;;;;5009682;28;20190;-66
2022/04/11 03:24:47;;;;;;;14.77;5.67;;;0.90;99.90;;;;;;5005023;28;20207;-65
2022/04/11 03:27:13;;;;;;;10.50;5.53;;;0.90;99.90;;;;;;5004565;28;20191;-66
2022/04/11 03:29:39;;;;;;;9.13;5.93;;;0.90;99.90;;;;;;5003842;28;20191;-67
2022/04/11 03:32:05;;;;;;;9.57;6.03;;;0.90;99.90;;;;;;5004590;28;20225;-67
2022/04/11 03:34:30;;;;;;;9.60;5.63;;;0.90;99.90;;;;;;5004908;28;20293;-68
2022/04/11 03:36:56;;;;;;;9.07;5.20;;;0.80;99.90;;;;;;5004960;28;20528;-67
2022/04/11 03:39:22;;;;;;;10.40;5.87;;;0.80;99.90;;;;;;5003585;28;20187;-67
2022/04/11 03:41:47;;;;;;;15.30;6.43;;;0.80;99.90;;;;;;5005006;28;20198;-68
2022/04/11 03:44:13;;;;;;;24.73;6.97;;;0.80;99.90;;;;;;5004045;28;20289;-66
2022/04/11 03:46:39;;;;;;;9.77;6.00;;;0.80;99.90;;;;;;5008696;28;20209;-66
2022/04/11 03:49:05;;;;;;;12.87;6.03;;;0.80;99.90;;;;;;5007806;28;20260;-67
2022/04/11 03:51:31;;;;;;;15.90;5.83;;;0.80;99.90;;;;;;5008718;28;20216;-68
2022/04/11 03:53:57;;;;;;;10.93;6.37;;;0.70;99.90;;;;;;5007791;28;21169;-67
2022/04/11 03:56:22;;;;;;;7.47;5.00;;;0.70;99.90;;;;;;5008419;28;20437;-66
2022/04/11 03:58:48;;;;;;;9.03;5.53;;;0.70;99.90;;;;;;5015095;28;20197;-67
2022/04/11 04:01:14;;;;;;;10.33;5.57;;;0.70;99.90;;;;;;5011881;28;20202;-69
2022/04/11 04:03:40;;;;;;;11.60;5.90;;;0.70;99.90;;;;;;5016114;28;20278;-67
2022/04/11 04:06:06;;;;;;;14.57;6.03;;;0.70;99.90;;;;;;5011723;28;20183;-66
2022/04/11 04:08:32;;;;;;;12.60;6.10;;;0.60;99.90;;;;;;4989622;28;20434;-66
2022/04/11 04:10:58;;;;;;;9.60;5.57;;;0.60;99.90;;;;;;5008388;28;20513;-66
2022/04/11 04:13:24;;;;;;;12.30;6.73;;;0.50;99.90;;;;;;4999984;28;20199;-67
2022/04/11 04:15:49;;;;;;;13.23;6.80;;;0.50;99.90;;;;;;4990110;28;20560;-64
2022/04/11 04:18:16;;;;;;;19.37;6.80;;;0.50;99.90;;;;;;5007103;28;20448;-66
2022/04/11 04:20:41;;;;;;;16.33;7.10;;;0.50;99.90;;;;;;5008051;28;20217;-67
2022/04/11 04:23:07;;;;;;;10.20;6.13;;;0.50;99.90;;;;;;5017181;28;20616;-66
2022/04/11 04:25:34;;;;;;;12.23;6.40;;;0.50;99.90;;;;;;5007433;28;20215;-66
2022/04/11 04:28:00;;;;;;;10.67;6.73;;;0.50;99.90;;;;;;5006761;28;21348;-65
2022/04/11 04:30:26;;;;;;;12.33;5.60;;;0.50;99.90;;;;;;5006516;28;20480;-67
2022/04/11 04:32:52;;;;;;;13.50;7.40;;;0.50;99.90;;;;;;5007182;28;20429;-67
2022/04/11 04:35:18;;;;;;;12.50;6.20;;;0.40;99.90;;;;;;5011874;28;20206;-67
2022/04/11 04:37:43;;;;;;;10.43;5.97;;;0.50;99.90;;;;;;5009464;28;20686;-66
2022/04/11 04:40:10;;;;;;;13.43;6.27;;;0.40;99.90;;;;;;5006633;28;20441;-67
2022/04/11 04:42:36;;;;;;;12.00;6.40;;;0.40;99.90;;;;;;5011824;28;20253;-67
2022/04/11 04:45:02;;;;;;;13.63;7.07;;;0.30;99.90;;;;;;5006686;28;20919;-68
2022/04/11 04:47:28;;;;;;;12.73;6.23;;;0.20;99.90;;;;;;5007203;28;20537;-67
2022/04/11 04:49:54;;;;;;;19.90;7.20;;;0.20;99.90;;;;;;5012905;28;21129;-67
2022/04/11 04:52:19;;;;;;;14.80;6.13;;;0.20;99.90;;;;;;5006801;28;20211;-67
2022/04/11 04:54:45;;;;;;;10.30;5.63;;;0.20;99.90;;;;;;5005074;28;20906;-67
2022/04/11 04:57:11;;;;;;;8.67;5.60;;;0.20;99.90;;;;;;5006824;28;20943;-66
2022/04/11 04:59:36;;;;;;;9.97;5.60;;;0.20;99.90;;;;;;5006026;28;20190;-66
2022/04/11 05:02:02;;;;;;;11.57;6.93;;;0.20;99.90;;;;;;5017118;28;20559;-66
2022/04/11 05:04:28;;;;;;;12.20;6.07;;;0.20;99.90;;;;;;5007110;28;20323;-68
2022/04/11 05:06:53;;;;;;;20.23;7.17;;;0.10;99.90;;;;;;5007152;28;20796;-67
2022/04/11 05:09:19;;;;;;;13.23;5.63;;;0.00;99.90;;;;;;5005207;28;20191;-67
2022/04/11 05:11:45;;;;;;;16.87;6.57;;;0.00;99.90;;;;;;5006661;28;20229;-68
2022/04/11 05:14:11;;;;;;;14.87;7.03;;;0.00;99.90;;;;;;5005605;28;20580;-66
2022/04/11 05:16:36;;;;;;;15.10;5.47;;;0.00;99.90;;;;;;5006825;28;20187;-67
2022/04/11 05:19:02;;;;;;;19.70;5.80;;;0.00;99.90;;;;;;5005363;28;20191;-65
2022/04/11 05:21:28;;;;;;;13.30;6.50;;;0.00;99.90;;;;;;5015624;28;20830;-67
2022/04/11 05:23:54;;;;;;;10.53;5.77;;;0.00;99.90;;;;;;5009737;28;20489;-67
2022/04/11 05:26:19;;;;;;;15.70;6.70;;;0.00;99.90;;;;;;5006239;28;20306;-67
2022/04/11 05:28:46;;;;;;;23.97;8.93;;;0.00;99.90;;;;;;5005528;28;20191;-68
2022/04/11 05:31:12;;;;;;;12.77;6.23;;;0.00;99.90;;;;;;5006103;28;20230;-67
2022/04/11 05:33:37;;;;;;;10.10;5.60;;;0.00;99.90;;;;;;5005996;28;20430;-67
2022/04/11 05:36:03;;;;;;;17.33;7.67;;;0.00;99.90;;;;;;5017105;28;20903;-67
2022/04/11 05:38:29;;;;;;;12.17;6.87;;;0.10;99.90;;;;;;5016569;28;20732;-67
2022/04/11 05:40:56;;;;;;;16.43;7.27;;;0.10;99.90;;;;;;5014719;28;20191;-66
2022/04/11 05:43:22;;;;;;;17.23;7.20;;;0.20;99.90;;;;;;5006563;28;20809;-67
2022/04/11 05:45:48;;;;;;;17.73;8.90;;;0.20;99.90;;;;;;5006872;28;20492;-65
2022/04/11 05:48:13;;;;;;;9.93;5.77;;;0.20;99.90;;;;;;5008802;28;20686;-67
2022/04/11 05:50:39;;;;;;;23.73;8.37;;;0.20;99.90;;;;;;5019898;28;20225;-66
2022/04/11 05:53:05;;;;;;;13.73;7.20;;;0.20;99.90;;;;;;5008619;28;20191;-66
2022/04/11 05:55:31;;;;;;;13.77;5.90;;;0.30;99.90;;;;;;5017953;28;20578;-67
2022/04/11 05:57:56;;;;;;;13.40;6.20;;;0.40;99.90;;;;;;5010587;28;20210;-67
2022/04/11 06:00:22;;;;;;;11.43;6.37;;;0.40;99.90;;;;;;5003614;28;20191;-66
2022/04/11 06:02:48;;;;;;;12.70;6.23;;;0.50;99.90;;;;;;5002022;28;20286;-65
2022/04/11 06:05:14;;;;;;;13.10;7.50;;;0.50;99.90;;;;;;4999869;28;20420;-65
2022/04/11 06:07:40;;;;;;;12.10;5.90;;;0.60;99.90;;;;;;5003839;28;20449;-64
2022/04/11 06:10:07;;;;;;;14.67;7.03;;;0.70;99.90;;;;;;4987139;28;20422;-66
2022/04/11 06:12:34;;;;;;;14.90;7.20;;;0.80;99.90;;;;;;5003855;28;20187;-65
2022/04/11 06:14:59;;;;;;;21.70;7.90;;;0.90;99.90;;;;;;5007672;28;20527;-65
2022/04/11 06:17:25;;;;;;;9.97;5.37;;;1.00;99.90;;;;;;5004412;28;20972;-66
2022/04/11 06:19:52;;;;;;;14.73;6.07;;;1.10;99.90;;;;;;5001727;28;20278;-65
2022/04/11 06:22:18;;;;;;;15.77;6.63;;;1.30;99.90;;;;;;5004246;28;20501;-65
2022/04/11 06:24:44;;;;;;;14.10;7.10;;;1.50;99.90;;;;;;5000449;28;20460;-65
2022/04/11 06:27:10;;;;;;;12.37;6.67;;;1.70;99.90;;;;;;5002667;28;20689;-65
2022/04/11 06:29:36;;;;;;;12.50;7.00;;;1.90;99.90;;;;;;5004146;28;20437;-66
2022/04/11 06:32:04;;;;;;;9.73;6.00;;;2.10;99.90;;;;;;5004081;28;20219;-65
2022/04/11 06:34:34;;;;;;;10.87;6.20;;;2.30;99.90;;;;;;5004985;28;20226;-65
2022/04/11 06:37:00;;;;;;;12.50;6.43;;;2.40;99.90;;;;;;5011975;28;20484;-65
2022/04/11 06:39:26;;;;;;;9.07;5.60;;;2.60;99.90;;;;;;5003637;28;21259;-65
2022/04/11 06:41:52;;;;;;;14.37;5.77;;;2.80;99.90;;;;;;5005081;28;20191;-65
2022/04/11 06:44:18;;;;;;;10.53;4.83;;;3.10;99.90;;;;;;5000360;28;20458;-65
2022/04/11 06:46:43;;;;;;;7.50;4.70;;;3.30;99.90;;;;;;4996215;28;20214;-65
2022/04/11 06:49:09;;;;;;;10.80;4.57;;;3.50;99.90;;;;;;5000569;28;20197;-64
2022/04/11 06:51:35;;;;;;;8.07;4.40;;;3.70;99.90;;;;;;4998401;28;20214;-65
2022/04/11 06:54:00;;;;;;;10.30;5.10;;;3.90;99.90;;;;;;5001683;28;20314;-65
2022/04/11 06:56:26;;;;;;;8.53;4.90;;;4.20;99.90;;;;;;5004792;28;20202;-65
2022/04/11 06:58:51;;;;;;;7.07;4.30;;;4.40;99.90;;;;;;5000694;28;20679;-63
2022/04/11 07:01:17;;;;;;;14.40;5.80;;;4.60;99.90;;;;;;5004287;28;20183;-65
2022/04/11 07:03:43;;;;;;;8.30;4.40;;;4.80;99.90;;;;;;4997663;28;20189;-64
2022/04/11 07:06:10;;;;;;;12.20;4.73;;;5.00;99.90;;;;;;5002124;28;20261;-65
2022/04/11 07:08:35;;;;;;;11.00;4.57;;;5.10;99.90;;;;;;4997589;28;20191;-64
2022/04/11 07:11:01;;;;;;;8.47;4.40;;;5.30;99.90;;;;;;5001500;28;20481;-65
2022/04/11 07:13:27;;;;;;;9.67;4.23;;;5.60;99.90;;;;;;5004107;28;20245;-65
2022/04/11 07:15:53;;;;;;;8.63;3.30;;;6.20;99.90;;;;;;5002250;28;20210;-63
2022/04/11 07:18:25;;;;;;;11.30;4.27;;;6.80;98.80;;;;;;5007509;28;20429;-64
2022/04/11 07:20:51;;;;;;;7.03;3.27;;;7.30;98.00;;;;;;5014865;28;20186;-66
2022/04/11 07:23:18;;;;;;;4.80;3.07;;;7.40;96.90;;;;;;5020859;28;20459;-65
2022/04/11 07:25:44;;;;;;;8.27;3.00;;;8.10;95.90;;;;;;5018075;28;20572;-66
2022/04/11 07:28:10;;;;;;;6.07;3.13;;;8.80;94.40;;;;;;5003012;28;20854;-66
2022/04/11 07:30:35;;;;;;;4.33;2.70;;;9.60;93.30;;;;;;5014226;28;20214;-66
2022/04/11 07:33:01;;;;;;;7.57;2.40;;;11.30;86.60;;;;;;5019697;28;20197;-65
2022/04/11 07:35:27;;;;;;;4.70;2.27;;;12.30;83.10;;;;;;5021636;28;20858;-67
2022/04/11 07:37:52;;;;;;;5.80;2.30;;;13.00;79.70;;;;;;5018260;28;20221;-67
2022/04/11 07:40:18;;;;;;;2.50;1.43;;;13.40;75.50;;;;;;5020348;28;20190;-66
2022/04/11 07:42:44;;;;;;;7.53;2.70;;;13.60;73.30;;;;;;5016866;28;20210;-67
2022/04/11 07:45:09;;;;;;;4.47;2.03;;;13.70;70.90;;;;;;5016544;28;20210;-66
2022/04/11 07:47:35;;;;;;;7.27;2.07;;;13.70;73.50;;;;;;5019230;28;20566;-67
2022/04/11 07:50:02;;;;;;;8.80;2.03;;;14.10;70.80;;;;;;5022857;28;20244;-67
2022/04/11 07:52:28;;;;;;;3.57;2.27;;;14.00;72.00;;;;;;5022090;28;20901;-65
2022/04/11 07:54:53;;;;;;;6.37;1.90;;;14.10;73.90;;;;;;5022691;28;20624;-66
2022/04/11 07:57:19;;;;;;;8.63;2.40;;;14.80;69.30;;;;;;5021285;28;20182;-66
2022/04/11 07:59:45;;;;;;;8.17;2.00;;;14.80;69.00;;;;;;5021333;28;20197;-65
2022/04/11 08:02:11;;;;;;;8.00;2.60;;;14.80;71.20;;;;;;5020279;28;20191;-65
2022/04/11 08:04:37;;;;;;;3.70;2.23;;;15.10;68.10;;;;;;5022045;28;20305;-65
2022/04/11 08:07:03;;;;;;;4.60;2.50;;;15.50;68.90;;;;;;5017478;28;21070;-65
2022/04/11 08:09:29;;;;;;;7.07;2.83;;;15.40;65.30;;;;;;5019699;28;20554;-65
2022/04/11 08:11:55;;;;;;;4.00;2.10;;;16.10;66.50;;;;;;5019985;28;20501;-66
2022/04/11 08:14:21;;;;;;;3.70;1.43;;;15.20;65.10;;;;;;5019387;28;20483;-65
2022/04/11 08:16:47;;;;;;;6.43;2.13;;;15.70;65.00;;;;;;5019704;28;20194;-65
2022/04/11 08:19:12;;;;;;;4.23;1.47;;;16.80;62.60;;;;;;5018073;28;20218;-65
2022/04/11 08:21:38;;;;;;;5.50;1.70;;;16.00;61.80;;;;;;5018999;28;20783;-66
2022/04/11 08:24:05;;;;;;;2.60;1.40;;;15.70;61.50;;;;;;5005851;28;20217;-66
2022/04/11 08:26:30;;;;;;;5.57;2.30;;;16.00;60.10;;;;;;5013915;28;20194;-66
2022/04/11 08:28:56;;;;;;;9.70;1.87;;;15.40;62.50;;;;;;5014182;28;20429;-65
2022/04/11 08:31:22;;;;;;;5.40;2.20;;;15.20;64.60;;;;;;5019635;28;20222;-65
2022/04/11 08:33:48;;;;;;;3.40;1.73;;;16.10;61.90;;;;;;5016440;28;20195;-65
2022/04/11 08:36:13;;;;;;;3.80;2.03;;;15.90;61.50;;;;;;5024928;28;20189;-65
2022/04/11 08:38:39;;;;;;;3.00;1.30;;;16.00;60.50;;;;;;5026015;28;20193;-66
2022/04/11 08:41:08;;;;;;;2.53;1.20;;;15.80;60.00;;;;;;5026631;28;20337;-65
2022/04/11 08:43:35;;;;;;;3.67;1.47;;;16.00;59.50;;;;;;5026520;28;20194;-64
2022/04/11 08:46:03;;;;;;;2.90;1.57;;;16.60;57.00;;;;;;5022643;28;20453;-66
2022/04/11 08:48:29;;;;;;;2.90;1.43;;;16.10;58.50;;;;;;5024426;28;20927;-66
2022/04/11 08:50:55;;;;;;;2.10;1.10;;;15.90;58.60;;;;;;5021601;28;21252;-65
2022/04/11 08:53:22;;;;;;;2.40;1.20;;;16.40;58.10;;;;;;5023428;28;20186;-66
2022/04/11 08:55:49;;;;;;;2.17;1.30;;;15.60;58.50;;;;;;5016573;28;20532;-66
2022/04/11 08:58:15;;;;;;;5.73;1.83;;;15.20;59.40;;;;;;5022587;28;21111;-65
2022/04/11 09:00:41;;;;;;;5.53;1.40;;;15.00;59.60;;;;;;5019372;28;20425;-64
2022/04/11 09:03:07;;;;;;;4.90;1.10;;;14.90;61.00;;;;;;5021596;28;21172;-65
2022/04/11 09:05:34;;;;;;;3.07;1.50;;;15.40;60.60;;;;;;5018244;28;20756;-66
2022/04/11 09:08:00;;;;;;;2.40;1.30;;;15.40;60.40;;;;;;5020101;28;20435;-64
2022/04/11 09:10:28;;;;;;;2.30;1.07;;;15.10;58.60;;;;;;5017435;28;21206;-67
2022/04/11 09:12:56;;;;;;;4.07;1.20;;;14.60;58.30;;;;;;5020120;28;20808;-65
2022/04/11 09:15:25;;;;;;;3.40;1.80;;;15.10;59.80;;;;;;5017575;28;20433;-65
2022/04/11 09:17:53;;;;;;;4.00;1.50;;;15.00;58.90;;;;;;5019463;28;20750;-65
2022/04/11 09:20:26;;;;;;;3.20;1.33;;;15.10;60.00;;;;;;5015499;28;20496;-67
2022/04/11 09:22:52;;;;;;;2.10;1.10;;;14.90;58.90;;;;;;5019160;28;20413;-65
2022/04/11 09:25:23;;;;;;;2.23;1.23;;;14.80;59.50;;;;;;5026399;28;20452;-66
2022/04/11 09:28:09;;;;;;;2.90;1.50;;;14.80;58.80;;;;;;5026358;28;20179;-67
2022/04/11 09:30:36;;;;;;;2.10;1.30;;;14.80;60.30;;;;;;5017457;28;20461;-65
2022/04/11 09:33:09;;;;;;;3.30;1.60;;;14.80;60.50;;;;;;5007443;28;20532;-66
2022/04/11 09:35:38;;;;;;;3.10;1.93;;;15.10;60.90;;;;;;5014430;28;20564;-66
2022/04/11 09:38:15;;;;;;;3.57;1.47;;;14.80;60.90;;;;;;5008909;28;20465;-63
2022/04/11 09:40:48;;;;;;;4.13;1.90;;;15.20;59.10;;;;;;5006157;28;21192;-65
2022/04/11 09:43:15;;;;;;;6.80;1.73;;;14.50;61.20;;;;;;5006470;28;20437;-65
2022/04/11 09:45:48;;;;;;;2.60;1.60;;;14.00;60.50;;;;;;5006100;28;20523;-65
2022/04/11 09:48:23;;;;;;;3.73;1.77;;;13.80;65.90;;;;;;5014740;28;20436;-63
2022/04/11 09:50:50;;;;;;;3.13;1.47;;;13.90;61.80;;;;;;5010404;28;20515;-66
2022/04/11 09:53:20;;;;;;;5.10;1.27;;;13.70;62.60;;;;;;5005814;28;20430;-66
2022/04/11 09:55:51;;;;;;;3.80;2.00;;;13.90;60.80;;;;;;5006024;28;20438;-65
2022/04/11 09:58:18;;;;;;;5.87;2.47;;;13.40;61.40;;;;;;5005839;28;20418;-64
2022/04/11 10:00:45;;;;;;;3.97;1.90;;;13.30;64.50;;;;;;5006042;28;20616;-64
2022/04/11 10:03:11;;;;;;;5.30;1.67;;;13.40;62.50;;;;;;5005829;28;20433;-65
2022/04/11 10:05:39;;;;;;;2.67;1.30;;;13.50;61.80;;;;;;5005887;28;20457;-65
2022/04/11 10:08:07;;;;;;;3.47;1.43;;;13.10;62.20;;;;;;5005776;28;20515;-62
2022/04/11 10:10:34;;;;;;;6.50;2.03;;;13.50;61.10;;;;;;5005627;28;20472;-65
2022/04/11 10:13:01;;;;;;;3.80;2.03;;;13.30;60.30;;;;;;5006255;28;20452;-64
2022/04/11 10:15:27;;;;;;;7.80;1.67;;;13.10;63.20;;;;;;5006120;28;20438;-66
2022/04/11 10:17:55;;;;;;;3.10;1.73;;;13.20;62.60;;;;;;5005865;28;20431;-68
2022/04/11 10:20:34;;;;;;;4.33;1.73;;;13.00;62.50;;;;;;5005389;28;20279;-66
2022/04/11 10:23:00;;;;;;;1.93;1.00;;;12.90;60.50;;;;;;5005417;28;21101;-67
2022/04/11 10:25:27;;;;;;;2.83;1.43;;;12.80;61.50;;;;;;5006117;28;20453;-67
2022/04/11 10:28:14;;;;;;;4.13;1.60;;;13.00;61.80;;;;;;5006427;28;20191;-66
2022/04/11 10:30:40;;;;;;;2.67;1.33;;;13.30;61.50;;;;;;5007637;28;20463;-65
2022/04/11 10:33:06;;;;;;;1.83;0.90;;;13.30;60.90;;;;;;5016347;28;20429;-65
2022/04/11 10:35:39;;;;;;;2.13;1.00;;;13.30;61.10;;;;;;5013461;28;20194;-66
2022/04/11 10:38:06;;;;;;;3.07;1.20;;;13.20;64.30;;;;;;5019055;28;20194;-63
2022/04/11 10:40:31;;;;;;;6.80;1.47;;;13.10;60.60;;;;;;5018905;28;21318;-66
2022/04/11 10:43:08;;;;;;;3.50;1.27;;;13.40;59.20;;;;;;5016262;28;20470;-66
2022/04/11 10:45:40;;;;;;;4.40;1.83;;;13.40;58.80;;;;;;5017557;28;20764;-65
2022/04/11 10:48:10;;;;;;;3.37;1.23;;;13.40;59.20;;;;;;5022698;28;20421;-65
2022/04/11 10:50:35;;;;;;;4.07;1.67;;;13.50;58.20;;;;;;5017294;28;20494;-66
2022/04/11 10:53:10;;;;;;;2.90;1.20;;;13.50;59.60;;;;;;5020029;28;20498;-66
2022/04/11 10:55:52;;;;;;;5.33;1.40;;;13.60;62.20;;;;;;5020298;28;20206;-66
2022/04/11 10:58:40;;;;;;;2.67;1.60;;;13.50;59.80;;;;;;5011308;28;21041;-65
2022/04/11 11:01:06;;;;;;;3.10;1.10;;;13.50;60.50;;;;;;5019175;28;20416;-64
2022/04/11 11:03:32;;;;;;;2.40;1.30;;;13.60;61.40;;;;;;5021514;28;20432;-66
2022/04/11 11:06:18;;;;;;;2.43;1.30;;;13.70;60.20;;;;;;5018595;28;20512;-65
2022/04/11 11:08:44;;;;;;;4.43;1.27;;;14.00;59.20;;;;;;5016712;28;20426;-65
2022/04/11 11:11:27;;;;;;;5.97;1.60;;;13.90;58.90;;;;;;5019907;28;20472;-65
2022/04/11 11:13:54;;;;;;;3.77;1.60;;;14.00;58.60;;;;;;5014750;28;20414;-65
2022/04/11 11:16:20;;;;;;;2.63;1.43;;;14.10;57.40;;;;;;5014550;28;20555;-65
2022/04/11 11:18:48;;;;;;;5.00;1.40;;;13.90;58.20;;;;;;5013376;28;20816;-64
2022/04/11 11:21:32;;;;;;;2.53;1.03;;;14.20;57.30;;;;;;5019092;28;20186;-65
2022/04/11 11:26:45;;;;;;;4.80;1.00;;;14.10;57.90;;;;;;5020492;28;20430;-65
2022/04/11 11:29:15;;;;;;;4.70;1.27;;;14.10;59.10;;;;;;5013870;28;20421;-64
2022/04/11 11:31:41;;;;;;;1.80;0.87;;;14.40;58.20;;;;;;5013391;28;20480;-66
2022/04/11 11:34:29;;;;;;;2.90;1.00;;;14.10;57.70;;;;;;5016876;28;20441;-65
2022/04/11 11:37:03;;;;;;;2.57;1.00;;;13.90;57.90;;;;;;5016826;28;20236;-66
2022/04/11 11:39:30;;;;;;;3.20;0.90;;;14.00;59.40;;;;;;5016396;28;20780;-66
2022/04/11 11:42:05;;;;;;;3.53;1.30;;;14.10;57.70;;;;;;5024134;28;20421;-65
2022/04/11 11:44:31;;;;;;;6.33;1.40;;;14.20;58.40;;;;;;5022843;28;20439;-67
2022/04/11 11:47:02;;;;;;;1.90;1.00;;;14.40;56.40;;;;;;5016285;28;20504;-66
2022/04/11 11:49:40;;;;;;;2.77;1.30;;;14.80;57.20;;;;;;5018810;28;20426;-66
2022/04/11 11:52:16;;;;;;;2.33;1.30;;;14.80;58.10;;;;;;5021456;28;21014;-66
2022/04/11 11:54:45;;;;;;;2.57;1.17;;;15.10;57.30;;;;;;5016686;28;20445;-65
2022/04/11 11:57:19;;;;;;;2.13;1.23;;;15.20;56.10;;;;;;5018812;28;20477;-65
2022/04/11 12:00:08;;;;;;;1.57;0.90;;;15.30;55.80;;;;;;5016964;28;20421;-66
2022/04/11 12:05:26;;;;;;;2.50;1.27;;;15.20;57.20;;;;;;5021441;28;20503;-66
2022/04/11 12:08:14;;;;;;;2.80;1.23;;;15.10;55.10;;;;;;5018290;28;20451;-64
2022/04/11 12:10:40;;;;;;;3.50;1.33;;;15.10;54.30;;;;;;5015983;28;21061;-65
2022/04/11 12:13:06;;;;;;;2.13;0.87;;;15.50;55.30;;;;;;5018783;28;20480;-64
2022/04/11 12:15:33;;;;;;;5.37;1.30;;;15.60;54.30;;;;;;5013253;28;20206;-66
2022/04/11 12:18:07;;;;;;;2.10;1.30;;;15.60;56.30;;;;;;5004845;28;20186;-66
2022/04/11 12:20:34;;;;;;;7.43;1.53;;;15.50;56.20;;;;;;5008245;28;20949;-64
2022/04/11 12:23:04;;;;;;;3.10;1.00;;;15.30;54.60;;;;;;5020525;28;20624;-64
2022/04/11 12:25:44;;;;;;;2.10;0.90;;;15.20;54.20;;;;;;5027271;28;20440;-65
2022/04/11 12:28:10;;;;;;;6.63;1.03;;;15.20;55.30;;;;;;5026080;28;20436;-65
2022/04/11 12:30:36;;;;;;;3.80;1.30;;;15.70;55.00;;;;;;5025000;28;20460;-65
2022/04/11 12:33:02;;;;;;;1.80;0.80;;;15.80;54.30;;;;;;5025195;28;20432;-64
2022/04/11 12:35:28;;;;;;;1.97;0.80;;;16.00;54.90;;;;;;5026044;28;21022;-66
2022/04/11 12:37:56;;;;;;;2.50;1.00;;;15.90;50.40;;;;;;5024432;28;20417;-65
2022/04/11 12:40:44;;;;;;;1.40;0.63;;;16.10;51.20;;;;;;5025207;28;20185;-66
2022/04/11 12:43:11;;;;;;;1.97;0.80;;;16.20;50.00;;;;;;5024598;28;20455;-65
2022/04/11 12:45:37;;;;;;;1.70;0.90;;;16.30;48.50;;;;;;5025308;28;20512;-64
2022/04/11 12:48:07;;;;;;;2.50;1.00;;;16.50;53.50;;;;;;5022773;28;20445;-66
2022/04/11 12:50:33;;;;;;;1.70;0.90;;;16.30;50.10;;;;;;5023721;28;20190;-66
2022/04/11 12:52:59;;;;;;;1.60;0.80;;;16.60;49.20;;;;;;5020262;28;20424;-65
2022/04/11 12:55:31;;;;;;;3.13;1.00;;;16.80;47.30;;;;;;5022653;28;20511;-64
2022/04/11 12:58:04;;;;;;;1.80;0.80;;;16.60;50.40;;;;;;5019681;28;20813;-65